createdAt,value
2023-01-21T00:01:19.180Z,96202.87
2023-01-21T00:03:47.589Z,96208.30
2023-01-21T00:06:15.662Z,96214.75
2023-01-21T00:08:44.134Z,96220.28
2023-01-21T00:11:15.357Z,96223.35
2023-01-21T00:13:45.811Z,96228.98
2023-01-21T00:16:14.339Z,96240.59
2023-01-21T00:18:42.860Z,96248.08
2023-01-21T00:21:10.880Z,96248.27
2023-01-21T00:23:39.019Z,96251.38
2023-01-21T00:26:10.777Z,96254.01
2023-01-21T00:28:40.209Z,96256.93
2023-01-21T00:31:09.336Z,96256.44
2023-01-21T00:33:38.294Z,96254.29
2023-01-21T00:36:12.287Z,96254.91
2023-01-21T00:38:40.876Z,96251.96
2023-01-21T00:41:12.135Z,96251.55
2023-01-21T00:43:43.989Z,96251.91
2023-01-21T00:46:12.261Z,96246.02
2023-01-21T00:48:40.764Z,96247.56
2023-01-21T00:51:10.049Z,96249.41
2023-01-21T00:53:43.380Z,96254.91
2023-01-21T00:56:13.737Z,96253.56
2023-01-21T00:58:45.039Z,96255.48
2023-01-21T01:01:21.882Z,96255.39
2023-01-21T01:03:50.749Z,96265.71
2023-01-21T01:06:23.718Z,96264.74
2023-01-21T01:08:52.176Z,96272.57
2023-01-21T01:11:24.980Z,96274.73
2023-01-21T01:13:54.438Z,96276.85
2023-01-21T01:16:23.380Z,96281.02
2023-01-21T01:18:52.793Z,96279.16
2023-01-21T01:21:22.403Z,96284.17
2023-01-21T01:23:55.901Z,96292.10
2023-01-21T01:26:23.980Z,96301.47
2023-01-21T01:28:52.873Z,96298.36
2023-01-21T01:31:22.161Z,96300.98
2023-01-21T01:33:50.302Z,96309.27
2023-01-21T01:36:20.834Z,96307.98
2023-01-21T01:38:49.068Z,96310.46
2023-01-21T01:41:21.546Z,96313.60
2023-01-21T01:44:03.543Z,96318.77
2023-01-21T01:46:37.060Z,96320.20
2023-01-21T01:49:12.376Z,96321.57
2023-01-21T01:51:54.577Z,96316.95
2023-01-21T01:54:27.694Z,96322.48
2023-01-21T01:57:00.078Z,96328.86
2023-01-21T01:59:29.853Z,96326.30
2023-01-21T02:02:00.617Z,96332.23
2023-01-21T02:04:35.634Z,96336.97
2023-01-21T02:07:04.124Z,96336.89
2023-01-21T02:09:32.097Z,96342.60
2023-01-21T02:12:02.384Z,96340.33
2023-01-21T02:14:31.930Z,96341.05
2023-01-21T02:16:59.924Z,96335.94
2023-01-21T02:19:53.359Z,96336.65
2023-01-21T02:22:36.890Z,96337.27
2023-01-21T02:25:18.679Z,96342.19
2023-01-21T02:28:28.814Z,96344.98
2023-01-21T02:31:05.871Z,96338.70
2023-01-21T02:33:52.908Z,96338.25
2023-01-21T02:36:30.132Z,96337.75
2023-01-21T02:39:10.835Z,96335.52
2023-01-21T02:42:00.624Z,96335.44
2023-01-21T02:44:37.639Z,96333.83
2023-01-21T02:47:18.265Z,96337.73
2023-01-21T02:50:07.213Z,96338.48
2023-01-21T02:52:35.289Z,96338.55
2023-01-21T02:55:04.504Z,96343.59
2023-01-21T02:57:38.730Z,96349.21
2023-01-21T03:00:13.347Z,96355.19
2023-01-21T03:02:59.531Z,96358.86
2023-01-21T03:05:39.782Z,96360.86
2023-01-21T03:08:20.247Z,96370.23
2023-01-21T03:11:18.298Z,96377.86
2023-01-21T03:14:23.928Z,96384.83
2023-01-21T03:16:58.629Z,96390.65
2023-01-21T03:19:39.840Z,96394.38
2023-01-21T03:22:15.886Z,96400.95
2023-01-21T03:24:48.468Z,96405.63
2023-01-21T03:27:20.884Z,96409.25
2023-01-21T03:29:51.588Z,96409.98
2023-01-21T03:32:22.427Z,96411.92
2023-01-21T03:34:53.668Z,96418.17
2023-01-21T03:37:38.128Z,96423.16
2023-01-21T03:40:19.163Z,96428.70
2023-01-21T03:42:53.720Z,96427.98
2023-01-21T03:46:05.192Z,96432.11
2023-01-21T03:48:38.937Z,96431.15
2023-01-21T03:51:13.946Z,96425.38
2023-01-21T03:53:43.436Z,96427.95
2023-01-21T03:56:11.511Z,96428.14
2023-01-21T03:58:39.583Z,96430.90
2023-01-21T04:01:08.015Z,96435.05
2023-01-21T04:03:36.147Z,96440.23
2023-01-21T04:06:04.222Z,96445.92
2023-01-21T04:08:32.310Z,96448.16
2023-01-21T04:11:00.268Z,96445.91
2023-01-21T04:13:28.458Z,96446.08
2023-01-21T04:15:56.426Z,96449.72
2023-01-21T04:18:24.608Z,96453.89
2023-01-21T04:20:52.791Z,96463.38
2023-01-21T04:23:20.834Z,96474.06
2023-01-21T04:25:49.560Z,96479.57
2023-01-21T04:28:19.165Z,96484.93
2023-01-21T04:30:48.181Z,96491.34
2023-01-21T04:33:17.670Z,96499.79
2023-01-21T04:35:45.651Z,96500.52
2023-01-21T04:38:14.443Z,96502.39
2023-01-21T04:40:42.994Z,96495.38
2023-01-21T04:43:11.104Z,96488.55
2023-01-21T04:45:39.303Z,96482.63
2023-01-21T04:48:07.879Z,96481.81
2023-01-21T04:50:36.244Z,96480.80
2023-01-21T04:53:04.335Z,96481.18
2023-01-21T04:55:32.412Z,96474.83
2023-01-21T04:58:00.492Z,96479.36
2023-01-21T05:00:28.975Z,96487.46
2023-01-21T05:02:57.158Z,96487.80
2023-01-21T05:05:25.416Z,96492.82
2023-01-21T05:07:54.531Z,96502.79
2023-01-21T05:10:22.616Z,96503.66
2023-01-21T05:12:50.992Z,96497.82
2023-01-21T05:15:19.070Z,96498.06
2023-01-21T05:17:47.344Z,96504.73
2023-01-21T05:20:16.184Z,96502.23
2023-01-21T05:22:48.925Z,96503.23
2023-01-21T05:25:17.213Z,96512.09
2023-01-21T05:27:51.531Z,96515.71
2023-01-21T05:30:20.425Z,96517.60
2023-01-21T05:32:52.911Z,96530.15
2023-01-21T05:35:22.775Z,96530.69
2023-01-21T05:37:51.203Z,96525.91
2023-01-21T05:40:20.035Z,96526.27
2023-01-21T05:42:48.371Z,96532.16
2023-01-21T05:45:16.553Z,96533.37
2023-01-21T05:47:44.939Z,96531.39
2023-01-21T05:50:13.025Z,96537.61
2023-01-21T05:52:41.408Z,96546.57
2023-01-21T05:55:09.989Z,96546.96
2023-01-21T05:57:38.163Z,96543.23
2023-01-21T06:00:07.364Z,96552.67
2023-01-21T06:02:35.584Z,96571.45
2023-01-21T06:05:03.931Z,96573.36
2023-01-21T06:07:31.904Z,96574.23
2023-01-21T06:10:00.032Z,96574.84
2023-01-21T06:12:28.147Z,96581.36
2023-01-21T06:14:56.337Z,96587.27
2023-01-21T06:17:24.300Z,96594.69
2023-01-21T06:19:52.800Z,96593.13
2023-01-21T06:22:20.979Z,96593.84
2023-01-21T06:24:49.054Z,96594.02
2023-01-21T06:27:17.131Z,96598.15
2023-01-21T06:29:45.411Z,96601.22
2023-01-21T06:32:13.375Z,96597.30
2023-01-21T06:34:41.365Z,96601.02
2023-01-21T06:37:09.436Z,96604.12
2023-01-21T06:39:37.922Z,96614.27
2023-01-21T06:42:06.200Z,96616.73
2023-01-21T06:44:34.169Z,96622.04
2023-01-21T06:47:02.534Z,96623.77
2023-01-21T06:49:30.636Z,96626.34
2023-01-21T06:51:58.710Z,96637.52
2023-01-21T06:54:29.411Z,96644.11
2023-01-21T06:56:58.859Z,96651.70
2023-01-21T06:59:26.926Z,96653.24
2023-01-21T07:01:55.426Z,96658.41
2023-01-21T07:04:23.827Z,96664.08
2023-01-21T07:06:52.284Z,96662.02
2023-01-21T07:09:20.979Z,96658.26
2023-01-21T07:11:49.774Z,96653.09
2023-01-21T07:14:18.049Z,96658.75
2023-01-21T07:16:46.019Z,96659.95
2023-01-21T07:19:17.716Z,96661.40
2023-01-21T07:21:45.870Z,96659.54
2023-01-21T07:24:14.024Z,96665.05
2023-01-21T07:26:43.339Z,96670.67
2023-01-21T07:29:11.443Z,96669.98
2023-01-21T07:31:39.642Z,96671.95
2023-01-21T07:34:08.184Z,96671.90
2023-01-21T07:36:36.298Z,96673.38
2023-01-21T07:39:04.460Z,96674.42
2023-01-21T07:41:32.405Z,96677.29
2023-01-21T07:44:00.510Z,96678.98
2023-01-21T07:46:28.583Z,96677.60
2023-01-21T07:48:56.954Z,96684.86
2023-01-21T07:51:25.191Z,96699.21
2023-01-21T07:53:56.910Z,96710.61
2023-01-21T07:56:26.904Z,96715.04
2023-01-21T07:58:55.203Z,96716.73
2023-01-21T08:01:27.223Z,96727.33
2023-01-21T08:03:55.450Z,96733.09
2023-01-21T08:06:23.745Z,96738.83
2023-01-21T08:08:52.206Z,96742.66
2023-01-21T08:11:20.135Z,96742.98
2023-01-21T08:13:50.195Z,96739.67
2023-01-21T08:16:18.313Z,96737.34
2023-01-21T08:18:46.561Z,96740.67
2023-01-21T08:21:14.948Z,96747.52
2023-01-21T08:23:44.087Z,96744.52
2023-01-21T08:26:12.732Z,96745.16
2023-01-21T08:28:40.811Z,96736.52
2023-01-21T08:31:12.078Z,96739.48
2023-01-21T08:33:40.656Z,96743.48
2023-01-21T08:36:09.759Z,96743.52
2023-01-21T08:38:38.228Z,96752.67
2023-01-21T08:41:06.231Z,96754.86
2023-01-21T08:43:34.485Z,96758.22
2023-01-21T08:46:03.361Z,96759.07
2023-01-21T08:48:31.542Z,96765.23
2023-01-21T08:51:01.036Z,96771.69
2023-01-21T08:53:29.143Z,96776.65
2023-01-21T08:56:02.341Z,96782.64
2023-01-21T08:58:31.434Z,96783.29
2023-01-21T09:01:06.425Z,96787.36
2023-01-21T09:03:34.556Z,96788.33
2023-01-21T09:06:04.270Z,96784.45
2023-01-21T09:08:32.652Z,96782.83
2023-01-21T09:11:02.157Z,96791.48
2023-01-21T09:13:37.193Z,96789.73
2023-01-21T09:16:14.950Z,96797.56
2023-01-21T09:18:43.690Z,96805.42
2023-01-21T09:21:12.851Z,96810.33
2023-01-21T09:23:41.381Z,96813.90
2023-01-21T09:26:18.350Z,96811.98
2023-01-21T09:28:52.664Z,96809.16
2023-01-21T09:31:22.098Z,96809.43
2023-01-21T09:33:56.383Z,96813.55
2023-01-21T09:36:27.300Z,96816.65
2023-01-21T09:38:55.619Z,96807.44
2023-01-21T09:41:46.206Z,96801.85
2023-01-21T09:44:23.187Z,96804.72
2023-01-21T09:47:25.576Z,96809.45
2023-01-21T09:50:07.945Z,96816.66
2023-01-21T09:52:40.660Z,96819.04
2023-01-21T09:55:17.782Z,96821.05
2023-01-21T09:57:52.264Z,96831.88
2023-01-21T10:00:41.884Z,96834.77
2023-01-21T10:03:42.432Z,96830.59
2023-01-21T10:06:38.735Z,96823.16
2023-01-21T10:09:20.085Z,96820.16
2023-01-21T10:12:23.549Z,96821.86
2023-01-21T10:15:27.297Z,96807.46
2023-01-21T10:18:03.653Z,96807.83
2023-01-21T10:20:40.942Z,96806.20
2023-01-21T10:23:20.582Z,96808.23
2023-01-21T10:25:50.194Z,96807.14
2023-01-21T10:28:25.944Z,96811.58
2023-01-21T10:31:03.129Z,96812.95
2023-01-21T10:33:33.364Z,96803.33
2023-01-21T10:36:07.468Z,96789.35
2023-01-21T10:39:20.774Z,96787.22
2023-01-21T10:42:09.935Z,96784.17
2023-01-21T10:45:03.928Z,96787.42
2023-01-21T10:47:47.231Z,96796.96
2023-01-21T10:50:21.196Z,96796.96
2023-01-21T10:52:59.645Z,96806.18
2023-01-21T10:56:14.079Z,96801.95
2023-01-21T10:58:53.996Z,96797.55
2023-01-21T11:01:28.190Z,96797.85
2023-01-21T11:04:11.581Z,96804.49
2023-01-21T11:06:40.672Z,96808.42
2023-01-21T11:09:13.282Z,96819.24
2023-01-21T11:11:43.083Z,96820.85
2023-01-21T11:14:11.242Z,96822.15
2023-01-21T11:16:39.480Z,96808.30
2023-01-21T11:19:08.321Z,96799.77
2023-01-21T11:21:40.142Z,96809.35
2023-01-21T11:24:23.638Z,96813.95
2023-01-21T11:26:53.225Z,96814.70
2023-01-21T11:29:23.047Z,96802.48
2023-01-21T11:32:03.513Z,96802.95
2023-01-21T11:34:32.105Z,96800.59
2023-01-21T11:37:04.863Z,96802.95
2023-01-21T11:39:47.265Z,96808.75
2023-01-21T11:42:17.339Z,96801.65
2023-01-21T11:44:51.303Z,96804.02
2023-01-21T11:47:30.417Z,96804.98
2023-01-21T11:50:10.073Z,96804.71
2023-01-21T11:52:38.143Z,96806.05
2023-01-21T11:55:19.433Z,96808.49
2023-01-21T11:57:56.805Z,96808.38
2023-01-21T12:00:27.625Z,96804.95
2023-01-21T12:03:02.013Z,96801.41
2023-01-21T12:05:39.367Z,96801.69
2023-01-21T12:08:08.077Z,96799.94
2023-01-21T12:10:43.506Z,96795.79
2023-01-21T12:13:30.395Z,96798.16
2023-01-21T12:16:13.921Z,96799.16
2023-01-21T12:19:16.904Z,96790.13
2023-01-21T12:21:51.119Z,96793.96
2023-01-21T12:24:42.503Z,96802.52
2023-01-21T12:28:04.741Z,96811.56
2023-01-21T12:30:58.498Z,96817.16
2023-01-21T12:33:32.846Z,96821.40
2023-01-21T12:36:50.317Z,96815.41
2023-01-21T12:39:21.366Z,96814.02
2023-01-21T12:42:05.245Z,96818.69
2023-01-21T12:44:46.274Z,96822.38
2023-01-21T12:47:24.589Z,96828.80
2023-01-21T12:50:04.435Z,96825.30
2023-01-21T12:52:58.179Z,96825.31
2023-01-21T12:55:37.149Z,96825.54
2023-01-21T12:58:18.661Z,96823.48
2023-01-21T13:00:50.517Z,96826.27
2023-01-21T13:03:27.749Z,96831.42
2023-01-21T13:06:06.572Z,96825.95
2023-01-21T13:08:47.026Z,96826.89
2023-01-21T13:11:20.120Z,96823.21
2023-01-21T13:14:15.008Z,96818.47
2023-01-21T13:16:54.345Z,96814.53
2023-01-21T13:19:22.872Z,96816.29
2023-01-21T13:22:06.456Z,96822.46
2023-01-21T13:24:37.503Z,96822.52
2023-01-21T13:27:11.406Z,96820.25
2023-01-21T13:29:54.687Z,96822.35
2023-01-21T13:32:54.650Z,96826.95
2023-01-21T13:35:28.445Z,96828.05
2023-01-21T13:38:01.884Z,96830.52
2023-01-21T13:40:32.778Z,96831.15
2023-01-21T13:43:09.974Z,96841.29
2023-01-21T13:45:44.258Z,96836.48
2023-01-21T13:48:30.481Z,96826.64
2023-01-21T13:51:01.663Z,96827.54
2023-01-21T13:53:44.143Z,96828.14
2023-01-21T13:56:30.215Z,96825.45
2023-01-21T13:59:07.915Z,96824.66
2023-01-21T14:01:44.570Z,96826.56
2023-01-21T14:04:33.643Z,96830.52
2023-01-21T14:07:13.517Z,96827.83
2023-01-21T14:10:14.791Z,96827.81
2023-01-21T14:12:45.981Z,96833.58
2023-01-21T14:15:26.425Z,96832.95
2023-01-21T14:17:58.188Z,96837.00
2023-01-21T14:20:34.985Z,96843.30
2023-01-21T14:23:16.148Z,96847.19
2023-01-21T14:25:59.657Z,96851.02
2023-01-21T14:28:49.743Z,96853.54
2023-01-21T14:31:25.166Z,96853.83
2023-01-21T14:34:01.125Z,96859.23
2023-01-21T14:36:29.220Z,96857.45
2023-01-21T14:39:07.838Z,96863.02
2023-01-21T14:42:09.780Z,96862.45
2023-01-21T14:44:39.698Z,96872.61
2023-01-21T14:47:16.079Z,96873.67
2023-01-21T14:49:47.161Z,96873.77
2023-01-21T14:52:18.443Z,96877.04
2023-01-21T14:54:47.472Z,96876.50
2023-01-21T14:57:21.989Z,96881.48
2023-01-21T14:59:52.137Z,96882.48
2023-01-21T15:02:28.068Z,96887.97
2023-01-21T15:05:02.183Z,96890.99
2023-01-21T15:07:35.785Z,96895.01
2023-01-21T15:10:21.052Z,96890.20
2023-01-21T15:12:58.262Z,96890.23
2023-01-21T15:15:28.162Z,96895.14
2023-01-21T15:17:59.700Z,96896.48
2023-01-21T15:20:50.402Z,96884.66
2023-01-21T15:23:29.264Z,96888.06
2023-01-21T15:26:11.128Z,96896.17
2023-01-21T15:28:46.064Z,96899.69
2023-01-21T15:31:20.176Z,96889.60
2023-01-21T15:33:52.720Z,96888.11
2023-01-21T15:36:24.311Z,96890.89
2023-01-21T15:38:56.962Z,96895.17
2023-01-21T15:41:27.113Z,96905.42
2023-01-21T15:44:11.237Z,96902.46
2023-01-21T15:47:17.782Z,96901.16
2023-01-21T15:49:59.176Z,96903.29
2023-01-21T15:53:03.885Z,96913.06
2023-01-21T15:55:38.006Z,96917.20
2023-01-21T15:58:08.630Z,96922.32
2023-01-21T16:01:07.963Z,96924.32
2023-01-21T16:03:45.537Z,96926.40
2023-01-21T16:06:16.456Z,96927.28
2023-01-21T16:09:09.311Z,96923.52
2023-01-21T16:12:08.895Z,96923.44
2023-01-21T16:14:59.908Z,96925.50
2023-01-21T16:17:46.600Z,96926.67
2023-01-21T16:20:16.732Z,96931.17
2023-01-21T16:22:49.443Z,96929.21
2023-01-21T16:25:21.675Z,96933.58
2023-01-21T16:27:52.947Z,96942.79
2023-01-21T16:30:27.161Z,96947.69
2023-01-21T16:33:12.921Z,96957.38
2023-01-21T16:35:51.848Z,96960.14
2023-01-21T16:38:23.920Z,96962.89
2023-01-21T16:41:12.593Z,96963.92
2023-01-21T16:43:48.077Z,96967.10
2023-01-21T16:46:18.809Z,96969.38
2023-01-21T16:48:59.504Z,96967.70
2023-01-21T16:51:40.366Z,96965.34
2023-01-21T16:54:24.782Z,96961.30
2023-01-21T16:57:00.580Z,96958.52
2023-01-21T16:59:41.351Z,96954.35
2023-01-21T17:02:17.900Z,96948.54
2023-01-21T17:04:46.505Z,96949.44
2023-01-21T17:07:50.629Z,96943.13
2023-01-21T17:10:20.722Z,96943.21
2023-01-21T17:12:53.127Z,96945.52
2023-01-21T17:15:43.221Z,96947.10
2023-01-21T17:18:26.290Z,96948.42
2023-01-21T17:21:00.398Z,96958.42
2023-01-21T17:23:54.375Z,96948.33
2023-01-21T17:26:22.458Z,96946.83
2023-01-21T17:29:16.108Z,96938.95
2023-01-21T17:31:45.149Z,96939.46
2023-01-21T17:34:16.455Z,96953.23
2023-01-21T17:36:47.228Z,96967.38
2023-01-21T17:39:17.212Z,96965.44
2023-01-21T17:41:46.567Z,96975.73
2023-01-21T17:44:22.288Z,96988.60
2023-01-21T17:46:52.848Z,96990.81
2023-01-21T17:49:26.612Z,96994.93
2023-01-21T17:51:55.607Z,96995.47
2023-01-21T17:54:29.929Z,96990.46
2023-01-21T17:56:59.546Z,96998.92
2023-01-21T17:59:41.816Z,97002.92
2023-01-21T18:02:22.030Z,97001.98
2023-01-21T18:04:50.680Z,96991.19
2023-01-21T18:07:24.188Z,96996.23
2023-01-21T18:09:53.957Z,96997.60
2023-01-21T18:12:22.480Z,96998.85
2023-01-21T18:14:50.561Z,96994.07
2023-01-21T18:17:21.500Z,96991.86
2023-01-21T18:19:49.781Z,97002.38
2023-01-21T18:22:30.355Z,97010.20
2023-01-21T18:25:00.576Z,97017.11
2023-01-21T18:27:28.845Z,97018.21
2023-01-21T18:30:01.942Z,97019.95
2023-01-21T18:32:30.316Z,97021.07
2023-01-21T18:35:00.044Z,97014.99
2023-01-21T18:37:28.114Z,97018.08
2023-01-21T18:39:56.189Z,97018.00
2023-01-21T18:42:24.987Z,97020.59
2023-01-21T18:44:53.086Z,97023.58
2023-01-21T18:47:22.884Z,97027.27
2023-01-21T18:49:51.252Z,97031.54
2023-01-21T18:52:20.902Z,97029.21
2023-01-21T18:54:49.038Z,97029.46
2023-01-21T18:57:20.492Z,97030.24
2023-01-21T18:59:49.042Z,97032.77
2023-01-21T19:02:20.153Z,97028.21
2023-01-21T19:04:48.824Z,97028.88
2023-01-21T19:07:22.443Z,97034.19
2023-01-21T19:09:51.266Z,97040.34
2023-01-21T19:12:21.556Z,97040.13
2023-01-21T19:14:49.529Z,97035.77
2023-01-21T19:17:26.095Z,97036.77
2023-01-21T19:19:55.196Z,97042.44
2023-01-21T19:22:23.234Z,97043.11
2023-01-21T19:24:51.346Z,97043.71
2023-01-21T19:27:28.353Z,97043.90
2023-01-21T19:29:56.607Z,97041.27
2023-01-21T19:32:24.684Z,97037.77
2023-01-21T19:34:52.759Z,97034.44
2023-01-21T19:37:24.124Z,97037.05
2023-01-21T19:39:52.158Z,97037.84
2023-01-21T19:42:20.568Z,97035.40
2023-01-21T19:44:48.538Z,97036.05
2023-01-21T19:47:27.723Z,97041.84
2023-01-21T19:49:55.760Z,97043.79
2023-01-21T19:52:24.033Z,97044.40
2023-01-21T19:54:54.862Z,97042.55
2023-01-21T19:57:23.176Z,97041.13
2023-01-21T19:59:52.999Z,97040.29
2023-01-21T20:02:21.275Z,97035.77
2023-01-21T20:04:49.624Z,97035.69
2023-01-21T20:07:18.018Z,97035.25
2023-01-21T20:09:45.993Z,97042.21
2023-01-21T20:12:14.273Z,97044.83
2023-01-21T20:14:42.451Z,97047.89
2023-01-21T20:17:14.310Z,97049.84
2023-01-21T20:19:42.487Z,97045.66
2023-01-21T20:22:12.419Z,97045.27
2023-01-21T20:24:40.541Z,97053.91
2023-01-21T20:27:14.291Z,97057.20
2023-01-21T20:29:49.488Z,97056.21
2023-01-21T20:32:23.524Z,97061.27
2023-01-21T20:34:51.727Z,97070.92
2023-01-21T20:37:19.801Z,97069.70
2023-01-21T20:39:48.288Z,97067.56
2023-01-21T20:42:16.331Z,97068.16
2023-01-21T20:44:44.329Z,97062.23
2023-01-21T20:47:12.356Z,97067.80
2023-01-21T20:49:40.593Z,97073.73
2023-01-21T20:52:11.233Z,97078.41
2023-01-21T20:54:39.303Z,97078.20
2023-01-21T20:57:13.634Z,97079.64
2023-01-21T20:59:41.693Z,97077.59
2023-01-21T21:02:12.908Z,97072.88
2023-01-21T21:04:41.121Z,97078.92
2023-01-21T21:07:16.171Z,97083.55
2023-01-21T21:09:44.230Z,97084.27
2023-01-21T21:12:12.413Z,97091.64
2023-01-21T21:14:40.467Z,97094.58
2023-01-21T21:17:11.992Z,97087.32
2023-01-21T21:19:40.123Z,97086.08
2023-01-21T21:22:08.406Z,97084.92
2023-01-21T21:24:36.325Z,97084.67
2023-01-21T21:27:04.561Z,97092.19
2023-01-21T21:29:32.751Z,97105.03
2023-01-21T21:32:02.331Z,97105.83
2023-01-21T21:34:30.323Z,97097.61
2023-01-21T21:36:58.503Z,97097.48
2023-01-21T21:39:26.481Z,97118.44
2023-01-21T21:42:15.835Z,97126.92
2023-01-21T21:44:44.500Z,97120.20
2023-01-21T21:47:31.429Z,97117.83
2023-01-21T21:49:59.712Z,97110.59
2023-01-21T21:52:27.891Z,97110.81
2023-01-21T21:54:56.283Z,97103.66
2023-01-21T21:57:24.471Z,97107.73
2023-01-21T21:59:52.531Z,97106.27
2023-01-21T22:02:20.562Z,97106.02
2023-01-21T22:04:48.781Z,97112.23
2023-01-21T22:07:16.862Z,97108.86
2023-01-21T22:09:45.038Z,97118.38
2023-01-21T22:12:13.230Z,97122.48
2023-01-21T22:14:41.294Z,97116.31
2023-01-21T22:17:09.499Z,97111.19
2023-01-21T22:19:37.898Z,97106.84
2023-01-21T22:22:06.043Z,97106.15
2023-01-21T22:24:34.324Z,97106.30
2023-01-21T22:27:02.628Z,97106.42
2023-01-21T22:29:30.730Z,97106.26
2023-01-21T22:31:59.030Z,97099.23
2023-01-21T22:34:27.337Z,97102.07
2023-01-21T22:36:55.483Z,97103.48
2023-01-21T22:39:23.907Z,97107.54
2023-01-21T22:41:55.297Z,97111.59
2023-01-21T22:44:23.331Z,97115.35
2023-01-21T22:46:51.303Z,97116.16
2023-01-21T22:49:19.315Z,97114.41
2023-01-21T22:51:47.347Z,97107.88
2023-01-21T22:54:15.432Z,97113.84
2023-01-21T22:56:52.482Z,97118.34
2023-01-21T22:59:21.727Z,97114.99
2023-01-21T23:01:51.399Z,97108.08
2023-01-21T23:04:19.642Z,97108.20
2023-01-21T23:06:48.908Z,97112.07
2023-01-21T23:09:17.104Z,97112.29
2023-01-21T23:11:45.404Z,97111.02
2023-01-21T23:14:13.666Z,97104.29
2023-01-21T23:16:41.734Z,97109.96
2023-01-21T23:19:09.800Z,97117.58
2023-01-21T23:21:38.603Z,97119.00
2023-01-21T23:24:07.804Z,97122.54
2023-01-21T23:26:37.332Z,97117.26
2023-01-21T23:29:05.382Z,97118.05
2023-01-21T23:31:33.713Z,97119.26
2023-01-21T23:34:03.594Z,97128.98
2023-01-21T23:36:31.763Z,97134.06
2023-01-21T23:39:00.053Z,97128.46
2023-01-21T23:41:28.343Z,97126.95
2023-01-21T23:44:01.099Z,97126.33
2023-01-21T23:46:29.724Z,97126.05
2023-01-21T23:48:57.903Z,97123.38
2023-01-21T23:51:26.063Z,97130.85
2023-01-21T23:53:56.191Z,97127.52
2023-01-21T23:56:25.588Z,97127.77
2023-01-21T23:58:53.862Z,97141.95
